Detall de PIREP

Printer-friendly versionPDF version

[2013/01/24 16:14:00]
Flight IATA:CT0001
Pilot Number:012
Company ICAO:CAT
Aircraft Type:MD11/E
PAX:224
Aircraft Registration:PAX
Departing Airport: LEIB
Destination Airport: LEBL
Alternate Airport:LEPA
Online: VATSIM
Route:GODOX A293 MARTA
Flight Level:F240
No Slew and time accel
No pause
Crash detect
Detect pilot in Cockpit between each 30 and 45 minutes
16:14 Zero fuel Weight: 372096 Lbs, Fuel Weight: 35828 Lbs
16:14 VATSIM:LEIB 241600Z 29016KT 9999 FEW025TCU 14/05 Q1007 NOSIG
16:14 VATSIM:LEBL 241600Z 17007KT 150V210 9999 FEW025 12/04 Q1004 NOSIG
16:14 VOICE CATALONIAN
16:14 Parking Brakes off
16:18 Take-off
16:18 Take off Weight: 406973 Lbs
16:18 Wind: 292º @ 023 Knots Heading: 243º
16:18 POS N38º 52´ 22´´ E001º 22´ 25´´
16:18 Gear Up: 192 Knots
16:18 Flaps:3 at 193 Knots
16:19 Flaps:2 at 205 Knots
16:19 Flaps:3 at 208 Knots
16:19 Flaps:2 at 210 Knots
16:19 Flaps:1 at 211 Knots
16:19 Flaps:0 at 219 Knots
16:25 TOC
16:25 Fuel Weight: 29440 Lb
16:33 Wind:333º@080 Knots Heading: 350º Ground Speed: 363 Knots Altitude 23792 ft
16:37 TOD
16:37 Fuel Weight: 26164 Lb
16:48 Wind:320º@050 Knots Heading: 020º Ground Speed: 265 Knots Altitude 9333 ft
16:52 Flaps:1 at 253 Knots
16:54 Flaps:2 at 234 Knots
16:54 Flaps:3 at 231 Knots
16:56 Gear Down: 189 Knots
16:56 Flaps:4 at 188 Knots
16:56 Flaps:3 at 187 Knots
16:56 Flaps:4 at 186 Knots
16:56 Flaps:5 at 184 Knots
16:56 Flaps:6 at 180 Knots
16:56 Flaps:7 at 152 Knots
16:59 TouchDown:Rate -227 ft/min Speed: 135 Knots
16:59 VATSIM:LEBL 241630Z 16005KT 130V190 9999 FEW025 12/04 Q1004 NOSIG
16:59 Land
16:59 Wind:182º@006 Knots
16:59 Heading: 245º
16:59 Flight Duration: 00:41
16:59 Landing Weight: 394783 Lbs
16:59 POS N41º 17´ 57´´ E002º 05´ 06´´
17:00 Parking brakeson
17:00 Block to Block Duration: 00:47
17:00 Final Fuel: 22568 Lbls
17:00 Spent Fuel: 13260 Lbls
17:00 Flight Length: 210 NM
17:00 TOD Land Length: 100 NM

Exportar CSV

Powered by Drupal - Modified by Danger4k